createdAt,value
2019-05-28T00:02:06.686Z,14.80
2019-05-28T00:04:35.171Z,14.80
2019-05-28T00:07:03.631Z,14.80
2019-05-28T00:09:31.919Z,14.80
2019-05-28T00:12:00.273Z,14.80
2019-05-28T00:14:28.734Z,14.80
2019-05-28T00:16:56.949Z,14.80
2019-05-28T00:19:25.330Z,14.80
2019-05-28T00:21:53.529Z,14.80
2019-05-28T00:24:21.763Z,14.70
2019-05-28T00:26:49.974Z,14.70
2019-05-28T00:29:18.186Z,14.70
2019-05-28T00:31:46.511Z,14.70
2019-05-28T00:34:14.898Z,14.70
2019-05-28T00:36:43.123Z,14.70
2019-05-28T00:39:11.433Z,14.70
2019-05-28T00:41:40.339Z,14.70
2019-05-28T00:44:08.550Z,14.60
2019-05-28T00:46:36.874Z,14.60
2019-05-28T00:49:05.159Z,14.60
2019-05-28T00:51:34.494Z,14.60
2019-05-28T00:54:02.845Z,14.50
2019-05-28T00:56:31.068Z,14.50
2019-05-28T00:58:59.282Z,14.50
2019-05-28T01:01:27.636Z,14.50
2019-05-28T01:03:55.920Z,14.50
2019-05-28T01:06:24.210Z,14.40
2019-05-28T01:08:52.595Z,14.40
2019-05-28T01:11:20.938Z,14.40
2019-05-28T01:13:49.137Z,14.40
2019-05-28T01:16:17.900Z,14.30
2019-05-28T01:18:46.068Z,14.30
2019-05-28T01:21:14.350Z,14.20
2019-05-28T01:23:42.614Z,14.20
2019-05-28T01:26:12.029Z,14.20
2019-05-28T01:28:40.241Z,14.20
2019-05-28T01:31:08.483Z,14.10
2019-05-28T01:33:36.687Z,14.10
2019-05-28T01:36:05.084Z,14.10
2019-05-28T01:38:33.362Z,14.00
2019-05-28T01:41:01.698Z,14.00
2019-05-28T01:43:29.927Z,14.00
2019-05-28T01:45:58.254Z,14.00
2019-05-28T01:48:26.468Z,14.00
2019-05-28T01:50:54.784Z,14.00
2019-05-28T01:53:22.970Z,13.90
2019-05-28T01:55:51.194Z,13.90
2019-05-28T01:58:19.607Z,13.90
2019-05-28T02:00:48.195Z,13.80
2019-05-28T02:03:16.416Z,13.80
2019-05-28T02:05:45.006Z,13.80
2019-05-28T02:08:13.322Z,13.80
2019-05-28T02:10:41.537Z,13.80
2019-05-28T02:13:09.758Z,13.80
2019-05-28T02:15:37.984Z,13.70
2019-05-28T02:18:06.208Z,13.70
2019-05-28T02:20:34.439Z,13.70
2019-05-28T02:23:02.656Z,13.70
2019-05-28T02:25:30.874Z,13.60
2019-05-28T02:27:59.090Z,13.60
2019-05-28T02:30:27.315Z,13.60
2019-05-28T02:32:55.791Z,13.60
2019-05-28T02:35:24.095Z,13.60
2019-05-28T02:37:52.319Z,13.50
2019-05-28T02:40:21.123Z,13.50
2019-05-28T02:42:49.812Z,13.50
2019-05-28T02:45:18.093Z,13.50
2019-05-28T02:47:46.321Z,13.40
2019-05-28T02:50:14.534Z,13.40
2019-05-28T02:52:42.766Z,13.40
2019-05-28T02:55:11.084Z,13.40
2019-05-28T02:57:41.107Z,13.40
2019-05-28T03:00:14.375Z,13.40
2019-05-28T03:02:46.103Z,13.40
2019-05-28T03:05:14.683Z,13.40
2019-05-28T03:07:43.308Z,13.40
2019-05-28T03:10:11.738Z,13.30
2019-05-28T03:12:40.055Z,13.30
2019-05-28T03:15:27.708Z,13.30
2019-05-28T03:17:55.904Z,13.30
2019-05-28T03:20:24.183Z,13.20
2019-05-28T03:22:52.397Z,13.20
2019-05-28T03:25:20.789Z,13.20
2019-05-28T03:27:49.114Z,13.20
2019-05-28T03:30:17.341Z,13.10
2019-05-28T03:32:45.576Z,13.10
2019-05-28T03:35:13.768Z,13.10
2019-05-28T03:37:42.147Z,13.10
2019-05-28T03:40:10.381Z,13.10
2019-05-28T03:42:38.584Z,13.10
2019-05-28T03:45:06.976Z,13.00
2019-05-28T03:47:35.180Z,13.00
2019-05-28T03:50:07.445Z,13.00
2019-05-28T03:52:35.645Z,13.00
2019-05-28T03:55:08.061Z,13.00
2019-05-28T03:57:36.273Z,13.00
2019-05-28T04:00:05.367Z,13.00
2019-05-28T04:02:33.571Z,13.00
2019-05-28T04:05:01.845Z,12.90
2019-05-28T04:07:30.076Z,12.90
2019-05-28T04:09:58.368Z,12.90
2019-05-28T04:12:26.580Z,12.90
2019-05-28T04:14:54.798Z,12.90
2019-05-28T04:17:23.006Z,12.90
2019-05-28T04:19:51.269Z,12.90
2019-05-28T04:22:19.494Z,13.00
2019-05-28T04:24:47.820Z,13.00
2019-05-28T04:27:16.072Z,13.00
2019-05-28T04:29:44.290Z,13.00
2019-05-28T04:32:12.480Z,13.00
2019-05-28T04:34:40.807Z,13.00
2019-05-28T04:37:09.056Z,13.00
2019-05-28T04:39:37.905Z,13.10
2019-05-28T04:42:06.148Z,13.10
2019-05-28T04:44:34.390Z,13.10
2019-05-28T04:47:02.592Z,13.10
2019-05-28T04:49:30.801Z,13.10
2019-05-28T04:51:59.023Z,13.10
2019-05-28T04:54:27.241Z,13.10
2019-05-28T04:56:55.500Z,13.20
2019-05-28T04:59:23.772Z,13.20
2019-05-28T05:01:52.029Z,13.10
2019-05-28T05:04:20.233Z,13.10
2019-05-28T05:06:48.432Z,13.20
2019-05-28T05:09:16.676Z,13.20
2019-05-28T05:11:44.894Z,13.20
2019-05-28T05:14:13.207Z,13.20
2019-05-28T05:16:41.410Z,13.20
2019-05-28T05:19:10.632Z,13.20
2019-05-28T05:21:38.869Z,13.20
2019-05-28T05:24:07.513Z,13.20
2019-05-28T05:26:35.839Z,13.20
2019-05-28T05:29:04.109Z,13.30
2019-05-28T05:31:32.384Z,13.30
2019-05-28T05:34:00.600Z,13.30
2019-05-28T05:36:28.881Z,13.30
2019-05-28T05:38:57.097Z,13.30
2019-05-28T05:41:25.309Z,13.40
2019-05-28T05:43:53.546Z,13.40
2019-05-28T05:46:21.780Z,13.40
2019-05-28T05:48:50.050Z,13.40
2019-05-28T05:51:18.255Z,13.40
2019-05-28T05:53:46.474Z,13.40
2019-05-28T05:56:14.748Z,13.50
2019-05-28T05:58:43.043Z,13.50
2019-05-28T06:01:12.930Z,13.50
2019-05-28T06:03:42.236Z,13.50
2019-05-28T06:38:27.534Z,13.70
2019-05-28T06:40:55.910Z,13.70
2019-05-28T06:43:24.135Z,13.70
2019-05-28T06:45:52.605Z,13.70
2019-05-28T06:48:20.915Z,13.60
2019-05-28T06:50:49.141Z,13.60
2019-05-28T06:53:17.383Z,13.70
2019-05-28T06:55:45.616Z,13.70
2019-05-28T06:58:14.855Z,13.70
2019-05-28T07:00:43.340Z,13.70
2019-05-28T07:03:11.555Z,13.80
2019-05-28T07:05:39.883Z,13.70
2019-05-28T07:08:08.103Z,13.80
2019-05-28T07:11:00.160Z,13.80
2019-05-28T07:13:28.365Z,13.80
2019-05-28T07:15:56.637Z,13.80
2019-05-28T07:18:24.867Z,13.90
2019-05-28T07:20:53.079Z,13.90
2019-05-28T07:23:21.287Z,13.90
2019-05-28T07:25:49.502Z,13.90
2019-05-28T07:28:17.902Z,13.90
2019-05-28T07:30:46.205Z,14.00
2019-05-28T07:33:14.655Z,13.90
2019-05-28T07:35:46.199Z,14.00
2019-05-28T07:38:12.865Z,14.00
2019-05-28T07:40:41.066Z,14.10
2019-05-28T07:43:30.360Z,14.10
2019-05-28T07:45:58.641Z,14.10
2019-05-28T07:48:27.042Z,14.10
2019-05-28T07:50:55.290Z,14.20
2019-05-28T07:53:38.667Z,14.20
2019-05-28T07:55:53.765Z,14.20
2019-05-28T07:58:22.060Z,14.20
2019-05-28T08:00:50.282Z,14.30
2019-05-28T08:03:18.503Z,14.30
2019-05-28T08:05:46.748Z,14.30
2019-05-28T08:08:17.154Z,14.40
2019-05-28T08:10:45.624Z,14.40
2019-05-28T08:13:14.216Z,14.40
2019-05-28T08:15:42.927Z,14.40
2019-05-28T08:18:11.208Z,14.40
2019-05-28T08:20:39.426Z,14.40
2019-05-28T08:23:08.257Z,14.40
2019-05-28T08:25:46.756Z,14.40
2019-05-28T08:28:19.277Z,14.40
2019-05-28T08:30:36.635Z,14.50
2019-05-28T08:33:24.322Z,14.50
2019-05-28T08:35:52.527Z,14.50
2019-05-28T08:38:20.758Z,14.50
2019-05-28T08:40:48.989Z,14.60
2019-05-28T08:43:17.349Z,14.50
2019-05-28T08:45:45.793Z,14.60
2019-05-28T08:48:14.023Z,14.60
2019-05-28T08:50:42.251Z,14.60
2019-05-28T08:53:10.482Z,14.60
2019-05-28T08:55:38.751Z,14.60
2019-05-28T08:58:07.178Z,14.70
2019-05-28T09:00:42.840Z,14.80
2019-05-28T09:03:11.151Z,14.80
2019-05-28T09:05:39.371Z,14.80
2019-05-28T09:08:07.601Z,14.80
2019-05-28T09:10:35.814Z,14.90
2019-05-28T09:13:04.562Z,14.90
2019-05-28T09:15:32.824Z,14.90
2019-05-28T09:18:01.850Z,15.00
2019-05-28T09:20:30.209Z,15.00
2019-05-28T09:22:58.417Z,15.00
2019-05-28T09:25:26.640Z,15.10
2019-05-28T09:27:55.025Z,15.00
2019-05-28T09:30:23.328Z,15.10
2019-05-28T09:32:51.627Z,15.10
2019-05-28T09:35:19.976Z,15.20
2019-05-28T09:37:49.200Z,15.20
2019-05-28T09:40:17.518Z,15.20
2019-05-28T09:42:45.931Z,15.20
2019-05-28T09:45:22.362Z,15.20
2019-05-28T09:47:44.257Z,15.20
2019-05-28T09:50:29.265Z,15.30
2019-05-28T09:52:54.283Z,15.30
2019-05-28T09:55:13.315Z,15.30
2019-05-28T09:57:47.471Z,15.30
2019-05-28T10:00:15.327Z,15.30
2019-05-28T10:02:43.646Z,15.30
2019-05-28T10:05:11.952Z,15.40
2019-05-28T10:07:40.554Z,15.40
2019-05-28T10:10:08.797Z,15.40
2019-05-28T10:12:37.004Z,15.40
2019-05-28T10:15:07.873Z,15.40
2019-05-28T10:17:36.083Z,15.50
2019-05-28T10:20:06.588Z,15.50
2019-05-28T10:22:34.836Z,15.50
2019-05-28T10:25:04.627Z,15.50
2019-05-28T10:27:32.983Z,15.50
2019-05-28T10:30:01.179Z,15.60
2019-05-28T10:32:29.432Z,15.60
2019-05-28T10:35:03.707Z,15.60
2019-05-28T10:37:27.798Z,15.60
2019-05-28T10:39:56.020Z,15.60
2019-05-28T10:42:24.242Z,15.60
2019-05-28T10:44:52.488Z,15.60
2019-05-28T10:47:20.738Z,15.60
2019-05-28T10:49:51.061Z,15.70
2019-05-28T10:52:19.058Z,15.70
2019-05-28T10:54:47.271Z,15.80
2019-05-28T10:57:15.495Z,15.70
2019-05-28T10:59:43.726Z,15.80
2019-05-28T11:02:12.000Z,15.70
2019-05-28T11:04:40.317Z,15.70
2019-05-28T11:07:08.807Z,15.80
2019-05-28T11:09:37.050Z,15.80
2019-05-28T11:12:05.435Z,15.80
2019-05-28T11:14:33.728Z,15.90
2019-05-28T11:17:01.957Z,15.90
2019-05-28T11:19:30.272Z,16.00
2019-05-28T11:21:58.582Z,16.00
2019-05-28T11:24:26.796Z,16.10
2019-05-28T11:26:55.046Z,16.10
2019-05-28T11:29:23.335Z,16.10
2019-05-28T11:31:51.555Z,16.10
2019-05-28T11:34:19.856Z,16.10
2019-05-28T11:36:48.066Z,16.10
2019-05-28T11:39:16.295Z,16.10
2019-05-28T11:41:44.566Z,16.10
2019-05-28T11:44:13.003Z,16.10
2019-05-28T11:46:41.200Z,16.20
2019-05-28T11:49:09.439Z,16.20
2019-05-28T11:51:37.676Z,16.20
2019-05-28T11:54:05.903Z,16.30
2019-05-28T11:56:34.194Z,16.30
2019-05-28T11:59:02.427Z,16.30
2019-05-28T12:01:34.916Z,16.40
2019-05-28T12:04:00.707Z,16.40
2019-05-28T12:06:29.461Z,16.40
2019-05-28T12:08:57.839Z,16.40
2019-05-28T12:11:26.057Z,16.40
2019-05-28T12:13:54.276Z,16.40
2019-05-28T12:16:22.977Z,16.50
2019-05-28T12:18:51.186Z,16.40
2019-05-28T12:21:19.419Z,16.40
2019-05-28T12:23:47.995Z,16.50
2019-05-28T12:26:16.214Z,16.50
2019-05-28T12:28:44.454Z,16.50
2019-05-28T12:31:12.666Z,16.50
2019-05-28T12:33:40.896Z,16.60
2019-05-28T12:36:09.574Z,16.60
2019-05-28T12:38:57.518Z,16.60
2019-05-28T12:41:25.883Z,16.60
2019-05-28T12:43:54.130Z,16.60
2019-05-28T12:46:22.335Z,16.60
2019-05-28T12:48:50.599Z,16.60
2019-05-28T12:51:18.865Z,16.60
2019-05-28T12:53:50.749Z,16.70
2019-05-28T12:56:17.166Z,16.70
2019-05-28T12:58:45.450Z,16.70
2019-05-28T13:01:13.740Z,16.70
2019-05-28T13:03:42.019Z,16.70
2019-05-28T13:06:10.935Z,16.70
2019-05-28T13:08:39.163Z,16.80
2019-05-28T13:11:08.205Z,16.90
2019-05-28T13:13:36.432Z,16.90
2019-05-28T13:16:04.721Z,16.90
2019-05-28T13:18:33.075Z,17.00
2019-05-28T13:21:01.369Z,17.00
2019-05-28T13:23:29.570Z,16.90
2019-05-28T13:25:58.151Z,17.00
2019-05-28T13:28:26.393Z,17.00
2019-05-28T13:30:54.760Z,17.00
2019-05-28T13:33:23.331Z,16.90
2019-05-28T13:35:51.710Z,16.90
2019-05-28T13:38:26.880Z,17.00
2019-05-28T13:40:50.019Z,17.10
2019-05-28T13:43:18.269Z,17.10
2019-05-28T13:45:46.541Z,17.20
2019-05-28T13:48:14.755Z,17.20
2019-05-28T13:50:42.974Z,17.20
2019-05-28T13:53:11.273Z,17.20
2019-05-28T13:55:39.485Z,17.30
2019-05-28T13:58:08.063Z,17.30
2019-05-28T14:00:36.295Z,17.30
2019-05-28T14:03:05.089Z,17.40
2019-05-28T14:05:33.455Z,17.50
2019-05-28T14:08:01.663Z,17.50
2019-05-28T14:10:30.102Z,17.50
2019-05-28T14:12:58.614Z,17.50
2019-05-28T14:15:27.633Z,17.60
2019-05-28T14:17:56.181Z,17.60
2019-05-28T14:20:24.408Z,17.70
2019-05-28T14:22:53.143Z,17.70
2019-05-28T14:25:21.849Z,17.80
2019-05-28T14:27:50.115Z,17.80
2019-05-28T14:30:19.875Z,17.80
2019-05-28T14:32:48.494Z,17.70
2019-05-28T14:35:17.014Z,17.70
2019-05-28T14:37:45.507Z,17.70
2019-05-28T14:40:14.263Z,17.70
2019-05-28T14:42:42.471Z,17.60
2019-05-28T14:45:10.902Z,17.60
2019-05-28T14:47:39.195Z,17.70
2019-05-28T14:50:07.872Z,17.70
2019-05-28T14:52:36.297Z,17.80
2019-05-28T14:55:07.607Z,17.80
2019-05-28T14:57:35.915Z,17.90
2019-05-28T15:00:16.356Z,17.90
2019-05-28T15:02:44.635Z,18.00
2019-05-28T15:05:13.865Z,18.00
2019-05-28T15:07:42.087Z,17.90
2019-05-28T15:10:11.573Z,18.00
2019-05-28T15:12:40.361Z,18.00
2019-05-28T15:21:02.407Z,18.00
2019-05-28T15:23:30.641Z,17.90
2019-05-28T15:25:58.881Z,17.90
2019-05-28T15:28:27.092Z,18.10
2019-05-28T15:38:17.036Z,18.00
2019-05-28T15:40:45.695Z,18.00
2019-05-28T15:43:13.921Z,18.00
2019-05-28T15:45:42.156Z,18.00
2019-05-28T15:48:10.391Z,18.10
2019-05-28T15:50:38.935Z,18.10
2019-05-28T15:53:07.433Z,18.10
2019-05-28T15:55:35.754Z,18.10
2019-05-28T15:58:05.208Z,18.00
2019-05-28T16:00:33.459Z,18.10
2019-05-28T16:03:01.695Z,18.10
2019-05-28T16:05:29.994Z,18.10
2019-05-28T16:07:58.221Z,18.10
2019-05-28T16:10:26.427Z,18.00
2019-05-28T16:12:54.653Z,18.00
2019-05-28T16:15:22.874Z,17.90
2019-05-28T16:17:51.195Z,18.00
2019-05-28T16:20:19.467Z,18.00
2019-05-28T16:22:47.737Z,18.00
2019-05-28T16:25:15.973Z,18.00
2019-05-28T16:27:44.267Z,18.00
2019-05-28T16:30:14.399Z,18.00
2019-05-28T16:32:42.631Z,18.00
2019-05-28T16:35:11.151Z,18.00
2019-05-28T16:37:39.456Z,18.00
2019-05-28T16:40:15.832Z,18.00
2019-05-28T16:42:38.877Z,18.00
2019-05-28T16:45:07.264Z,18.00
2019-05-28T16:47:35.478Z,18.00
2019-05-28T16:50:04.826Z,18.00
2019-05-28T16:52:33.198Z,18.00
2019-05-28T16:55:01.644Z,17.90
2019-05-28T16:57:30.330Z,17.90
2019-05-28T16:59:58.618Z,17.80
2019-05-28T17:02:26.870Z,17.80
2019-05-28T17:04:55.133Z,17.80
2019-05-28T17:07:23.410Z,17.80
2019-05-28T17:09:51.643Z,17.70
2019-05-28T17:12:19.917Z,17.70
2019-05-28T17:14:48.146Z,17.70
2019-05-28T17:17:16.413Z,17.70
2019-05-28T17:19:44.974Z,17.60
2019-05-28T17:22:13.247Z,17.50
2019-05-28T17:24:41.484Z,17.50
2019-05-28T17:27:09.858Z,17.40
2019-05-28T17:29:38.322Z,17.40
2019-05-28T17:32:07.469Z,17.30
2019-05-28T17:34:36.755Z,17.20
2019-05-28T17:37:05.098Z,17.20
2019-05-28T17:39:33.401Z,17.10
2019-05-28T17:42:02.150Z,17.00
2019-05-28T17:44:30.388Z,17.00
2019-05-28T17:46:58.700Z,17.00
2019-05-28T17:49:26.894Z,16.90
2019-05-28T17:51:55.115Z,16.90
2019-05-28T17:54:23.546Z,16.80
2019-05-28T17:56:51.786Z,16.70
2019-05-28T17:59:21.217Z,16.70
2019-05-28T18:01:49.474Z,16.60
2019-05-28T18:04:17.789Z,16.60
2019-05-28T18:06:46.187Z,16.60
2019-05-28T18:09:14.417Z,16.50
2019-05-28T18:11:42.633Z,16.50
2019-05-28T18:14:10.860Z,16.50
2019-05-28T18:16:39.852Z,16.50
2019-05-28T18:19:08.174Z,16.40
2019-05-28T18:21:36.394Z,16.30
2019-05-28T18:24:04.604Z,16.30
2019-05-28T18:26:33.162Z,16.30
2019-05-28T18:29:01.440Z,16.30
2019-05-28T18:31:29.687Z,16.20
2019-05-28T18:33:58.357Z,16.20
2019-05-28T18:36:26.640Z,16.20
2019-05-28T18:38:54.860Z,16.20
2019-05-28T18:41:23.151Z,16.10
2019-05-28T18:43:51.418Z,16.10
2019-05-28T18:46:19.675Z,16.00
2019-05-28T18:48:48.070Z,16.10
2019-05-28T18:51:16.486Z,16.00
2019-05-28T18:53:44.718Z,15.90
2019-05-28T18:56:17.488Z,15.80
2019-05-28T18:58:43.255Z,15.80
2019-05-28T19:01:11.470Z,15.70
2019-05-28T19:03:39.682Z,15.70
2019-05-28T19:06:10.647Z,15.70
2019-05-28T19:08:38.870Z,15.60
2019-05-28T19:11:08.114Z,15.60
2019-05-28T19:13:36.425Z,15.50
2019-05-28T19:16:04.811Z,15.50
2019-05-28T19:18:33.108Z,15.50
2019-05-28T19:21:01.328Z,15.50
2019-05-28T19:23:29.635Z,15.40
2019-05-28T19:25:58.121Z,15.30
2019-05-28T19:28:26.372Z,15.20
2019-05-28T19:30:54.650Z,15.20
2019-05-28T19:33:22.963Z,15.20
2019-05-28T19:35:51.279Z,15.10
2019-05-28T19:38:19.534Z,15.10
2019-05-28T19:40:47.756Z,15.00
2019-05-28T19:43:16.108Z,14.90
2019-05-28T19:45:44.426Z,14.90
2019-05-28T19:48:12.684Z,14.90
2019-05-28T19:50:40.998Z,14.90
2019-05-28T19:53:09.360Z,14.90
2019-05-28T19:55:37.657Z,14.90
2019-05-28T19:58:06.144Z,14.80
2019-05-28T20:00:34.407Z,14.80
2019-05-28T20:03:02.647Z,14.70
2019-05-28T20:05:30.874Z,14.70
2019-05-28T20:07:59.625Z,14.60
2019-05-28T20:10:27.841Z,14.60
2019-05-28T20:12:56.375Z,14.50
2019-05-28T20:15:25.760Z,14.50
2019-05-28T20:17:56.696Z,14.40
2019-05-28T20:20:25.224Z,14.40
2019-05-28T20:22:54.064Z,14.30
2019-05-28T20:25:22.387Z,14.30
2019-05-28T20:27:51.797Z,14.20
2019-05-28T20:30:21.763Z,14.20
2019-05-28T20:32:51.053Z,14.20
2019-05-28T20:35:19.263Z,14.10
2019-05-28T20:37:47.534Z,14.10
2019-05-28T20:40:15.743Z,14.10
2019-05-28T20:42:43.953Z,14.00
2019-05-28T20:45:12.328Z,14.00
2019-05-28T20:47:40.575Z,13.90
2019-05-28T20:50:09.425Z,13.90
2019-05-28T20:52:38.281Z,13.90
2019-05-28T20:55:07.516Z,13.80
2019-05-28T20:57:35.724Z,13.80
2019-05-28T21:00:07.205Z,13.80
2019-05-28T21:02:35.457Z,13.70
2019-05-28T21:05:05.898Z,13.70
2019-05-28T21:07:34.155Z,13.60
2019-05-28T21:10:02.382Z,13.60
2019-05-28T21:12:43.131Z,13.60
2019-05-28T21:15:00.869Z,13.60
2019-05-28T21:17:29.062Z,13.60
2019-05-28T21:19:57.436Z,13.50
2019-05-28T21:22:27.086Z,13.50
2019-05-28T21:24:56.265Z,13.40
2019-05-28T21:27:24.685Z,13.40
2019-05-28T21:29:54.061Z,13.30
2019-05-28T21:32:22.383Z,13.30
2019-05-28T21:34:53.894Z,13.20
2019-05-28T21:37:20.728Z,13.30
2019-05-28T21:39:49.575Z,13.20
2019-05-28T21:42:18.292Z,13.10
2019-05-28T21:44:46.552Z,13.10
2019-05-28T21:47:16.045Z,13.00
2019-05-28T21:49:44.251Z,13.10
2019-05-28T21:52:12.466Z,13.00
2019-05-28T21:54:40.671Z,13.00
2019-05-28T21:57:08.897Z,13.00
2019-05-28T21:59:37.105Z,12.90
2019-05-28T22:02:05.348Z,12.90
2019-05-28T22:04:33.568Z,12.90
2019-05-28T22:07:01.958Z,12.80
2019-05-28T22:09:30.170Z,12.80
2019-05-28T22:11:59.601Z,12.80
2019-05-28T22:14:27.979Z,12.70
2019-05-28T22:16:59.347Z,12.70
2019-05-28T22:19:26.136Z,12.60
2019-05-28T22:21:54.364Z,12.60
2019-05-28T22:24:23.513Z,12.50
2019-05-28T22:26:51.760Z,12.50
2019-05-28T22:29:21.177Z,12.60
2019-05-28T22:31:49.490Z,12.50
2019-05-28T22:34:17.766Z,12.40
2019-05-28T22:36:46.157Z,12.40
2019-05-28T22:39:14.353Z,12.40
2019-05-28T22:41:43.615Z,12.40
2019-05-28T22:44:12.827Z,12.30
2019-05-28T22:46:41.049Z,12.30
2019-05-28T22:49:09.382Z,12.20
2019-05-28T22:51:37.607Z,12.20
2019-05-28T22:54:06.211Z,12.20
2019-05-28T22:56:34.631Z,12.20
2019-05-28T22:59:02.874Z,12.10
2019-05-28T23:01:31.138Z,12.10
2019-05-28T23:03:59.454Z,12.00
2019-05-28T23:06:27.806Z,11.90
2019-05-28T23:08:56.014Z,11.90
2019-05-28T23:11:24.234Z,11.80
2019-05-28T23:13:52.444Z,11.80
2019-05-28T23:16:20.703Z,11.80
2019-05-28T23:18:48.903Z,11.80
2019-05-28T23:21:17.147Z,11.70
2019-05-28T23:23:45.385Z,11.70
2019-05-28T23:26:13.618Z,11.70
2019-05-28T23:28:41.830Z,11.60
2019-05-28T23:31:10.126Z,11.60
2019-05-28T23:33:38.540Z,11.50
2019-05-28T23:36:06.804Z,11.50
2019-05-28T23:38:34.997Z,11.40
2019-05-28T23:41:03.262Z,11.40
2019-05-28T23:43:32.756Z,11.40
2019-05-28T23:46:01.131Z,11.30
2019-05-28T23:48:29.387Z,11.30
2019-05-28T23:50:57.592Z,11.30
2019-05-28T23:53:25.807Z,11.30
2019-05-28T23:55:55.383Z,11.30
2019-05-28T23:58:23.731Z,11.30
